Time;durP1;ratioP1;P1;durP2;ratioP2;P2;SDS_P1;SDS_P2;PMS_P1;PMS_P2;Temp;Humidity;BMP_temperature;BMP_pressure;BME280_temperature;BME280_humidity;BME280_pressure;Samples;Min_cycle;Max_cycle;Signal;HPM_P1;HPM_P2
2023/09/22 00:00:47;;;;;;;;;6.00;6.00;;;;;24.73;46.76;99672.79;110202;1257;19304;-38
2023/09/22 00:03:31;;;;;;;;;6.50;6.50;;;;;24.74;46.74;99672.05;110209;1264;19997;-37
2023/09/22 00:05:57;;;;;;;;;7.00;7.00;;;;;24.75;46.84;99670.19;110213;1263;19367;-37
2023/09/22 00:08:23;;;;;;;;;7.00;7.00;;;;;24.72;47.10;99662.32;110209;1250;19554;-37
2023/09/22 00:10:49;;;;;;;;;7.00;7.00;;;;;24.72;47.01;99657.27;110189;1255;19850;-37
2023/09/22 00:13:15;;;;;;;;;6.00;6.00;;;;;24.71;46.80;99655.55;110223;1248;20540;-36
2023/09/22 00:15:41;;;;;;;;;7.00;6.00;;;;;24.71;46.96;99653.27;110197;1250;19772;-37
2023/09/22 00:18:07;;;;;;;;;6.00;6.00;;;;;24.70;46.83;99650.55;110207;1250;19849;-38
2023/09/22 00:20:33;;;;;;;;;10.00;9.00;;;;;24.73;46.75;99649.84;110219;1247;21672;-37
2023/09/22 00:22:59;;;;;;;;;9.50;7.00;;;;;24.70;46.78;99644.30;110230;1263;18332;-37
2023/09/22 00:25:25;;;;;;;;;9.00;9.00;;;;;24.72;46.77;99645.60;110248;1251;21740;-37
2023/09/22 00:27:51;;;;;;;;;7.00;7.00;;;;;24.71;46.76;99641.63;110237;1249;20474;-37
2023/09/22 00:30:17;;;;;;;;;7.00;6.50;;;;;24.72;46.63;99640.57;110212;1263;18320;-37
2023/09/22 00:32:43;;;;;;;;;10.00;9.00;;;;;24.72;46.53;99640.24;110234;1247;20268;-38
2023/09/22 00:35:11;;;;;;;;;6.00;6.00;;;;;24.72;46.71;99640.34;110201;1250;20495;-38
2023/09/22 00:37:38;;;;;;;;;6.00;6.00;;;;;24.70;46.48;99640.34;110195;1248;22367;-38
2023/09/22 00:40:04;;;;;;;;;7.00;7.00;;;;;24.72;46.59;99638.77;110243;1247;20158;-38
2023/09/22 00:42:30;;;;;;;;;7.00;7.00;;;;;24.72;46.75;99629.36;110202;1248;22912;-37
2023/09/22 00:44:56;;;;;;;;;7.00;7.00;;;;;24.70;46.60;99628.20;110207;1247;22729;-38
2023/09/22 00:47:22;;;;;;;;;9.00;8.00;;;;;24.70;46.42;99626.88;110231;1247;18410;-37
2023/09/22 00:49:48;;;;;;;;;9.00;7.00;;;;;24.71;46.63;99629.17;110213;1263;19080;-38
2023/09/22 00:52:14;;;;;;;;;7.00;7.00;;;;;24.70;46.47;99627.33;110175;1256;18256;-37
2023/09/22 00:54:40;;;;;;;;;9.00;9.00;;;;;24.71;46.52;99629.55;110209;1263;20098;-37
2023/09/22 00:57:06;;;;;;;;;7.00;7.00;;;;;24.70;46.51;99627.97;110174;1263;19331;-36
2023/09/22 00:59:32;;;;;;;;;7.00;7.00;;;;;24.69;46.47;99623.79;110219;1263;22876;-36
2023/09/22 01:01:58;;;;;;;;;6.00;6.00;;;;;24.68;46.40;99623.89;110301;1263;18347;-37
2023/09/22 01:04:24;;;;;;;;;7.00;7.00;;;;;24.69;46.45;99628.23;110225;1250;22858;-37
2023/09/22 01:06:50;;;;;;;;;9.00;7.00;;;;;24.70;46.30;99628.65;110193;1247;22700;-37
2023/09/22 01:09:16;;;;;;;;;9.00;9.00;;;;;24.69;46.31;99621.83;110218;1264;22911;-37
2023/09/22 01:11:42;;;;;;;;;7.00;7.00;;;;;24.69;46.51;99626.52;110216;1250;21524;-38
2023/09/22 01:14:08;;;;;;;;;9.00;9.00;;;;;24.69;46.33;99625.73;110199;1263;22287;-38
2023/09/22 01:16:34;;;;;;;;;7.00;7.00;;;;;24.69;46.21;99625.11;110267;1250;22915;-38
2023/09/22 01:18:59;;;;;;;;;9.00;7.00;;;;;24.68;46.35;99618.66;110186;1247;19237;-38
2023/09/22 01:21:26;;;;;;;;;7.00;7.00;;;;;24.68;46.36;99616.98;110221;1250;19372;-38
2023/09/22 01:23:52;;;;;;;;;6.67;6.67;;;;;24.67;46.32;99616.80;110202;1257;19891;-37
2023/09/22 01:26:18;;;;;;;;;6.00;6.00;;;;;24.67;46.26;99616.86;110249;1263;19092;-37
2023/09/22 01:28:44;;;;;;;;;7.00;7.00;;;;;24.65;46.43;99615.52;110214;1263;18345;-37
2023/09/22 01:31:11;;;;;;;;;6.00;6.00;;;;;24.64;46.50;99614.39;110278;1263;19743;-37
2023/09/22 01:33:37;;;;;;;;;7.00;7.00;;;;;24.65;46.42;99616.55;110153;1263;20781;-37
2023/09/22 01:36:03;;;;;;;;;6.00;6.00;;;;;24.65;46.45;99612.94;110275;1250;18232;-37
2023/09/22 01:38:29;;;;;;;;;6.00;6.00;;;;;24.66;46.39;99608.13;110289;1264;18413;-36
2023/09/22 01:40:58;;;;;;;;;8.00;8.00;;;;;24.67;46.44;99604.90;110224;1250;20531;-38
2023/09/22 01:43:24;;;;;;;;;9.00;6.50;;;;;24.66;46.36;99604.52;110212;1247;22721;-37
2023/09/22 01:45:49;;;;;;;;;10.00;9.00;;;;;24.66;46.34;99607.43;110138;1264;22287;-37
2023/09/22 01:48:15;;;;;;;;;5.00;5.00;;;;;24.65;46.55;99605.13;110234;1247;21881;-37
2023/09/22 01:50:41;;;;;;;;;7.00;7.00;;;;;24.65;46.31;99596.38;110250;1257;20623;-37
2023/09/22 01:53:08;;;;;;;;;7.00;7.00;;;;;24.65;46.52;99591.80;110212;1263;22444;-37
2023/09/22 01:55:34;;;;;;;;;6.50;6.50;;;;;24.64;46.59;99586.45;110189;1257;20762;-37
2023/09/22 01:58:00;;;;;;;;;6.00;6.00;;;;;24.65;46.55;99595.50;110238;1250;19854;-36
2023/09/22 02:00:26;;;;;;;;;9.00;8.00;;;;;24.66;46.48;99588.25;110226;1250;19843;-37
2023/09/22 02:02:52;;;;;;;;;7.00;7.00;;;;;24.63;46.53;99589.48;110222;1263;19249;-37
2023/09/22 02:05:18;;;;;;;;;10.00;9.00;;;;;24.64;46.55;99590.93;110192;1250;19376;-37
2023/09/22 02:07:44;;;;;;;;;6.00;5.00;;;;;24.66;46.35;99591.70;110193;1264;21470;-37
2023/09/22 02:10:11;;;;;;;;;8.00;8.00;;;;;24.67;46.31;99588.23;110230;1247;20593;-38
2023/09/22 02:12:37;;;;;;;;;6.00;6.00;;;;;24.65;46.63;99586.59;110195;1258;19737;-37
2023/09/22 02:15:04;;;;;;;;;9.50;9.00;;;;;24.64;46.36;99585.53;110178;1264;19473;-37
2023/09/22 02:17:31;;;;;;;;;9.00;8.00;;;;;24.66;46.55;99588.42;110153;1264;20871;-37
2023/09/22 02:19:57;;;;;;;;;7.00;7.00;;;;;24.64;46.30;99584.67;110161;1247;22330;-37
2023/09/22 02:22:23;;;;;;;;;7.00;7.00;;;;;24.63;46.44;99586.52;110297;1264;18355;-37
2023/09/22 02:24:49;;;;;;;;;6.00;6.00;;;;;24.65;46.52;99584.45;110240;1264;18986;-37
2023/09/22 02:27:15;;;;;;;;;9.00;9.00;;;;;24.63;46.69;99585.48;110260;1248;22922;-37
2023/09/22 02:29:41;;;;;;;;;6.00;6.00;;;;;24.64;46.59;99581.69;110183;1248;20991;-37
2023/09/22 02:32:07;;;;;;;;;6.00;6.00;;;;;24.64;46.49;99582.30;110202;1257;23007;-37
2023/09/22 02:34:33;;;;;;;;;7.00;7.00;;;;;24.63;46.53;99582.43;110215;1248;18521;-38
2023/09/22 02:36:59;;;;;;;;;7.00;6.50;;;;;24.63;46.58;99582.52;110181;1250;23367;-37
2023/09/22 02:39:25;;;;;;;;;9.00;7.00;;;;;24.63;46.56;99580.85;110184;1250;20509;-37
2023/09/22 02:41:51;;;;;;;;;7.00;7.00;;;;;24.64;46.47;99582.30;110242;1264;18209;-37
2023/09/22 02:44:17;;;;;;;;;7.00;7.00;;;;;24.63;46.56;99581.82;110220;1250;21878;-37
2023/09/22 02:46:43;;;;;;;;;7.00;7.00;;;;;24.64;46.50;99584.66;110193;1263;19298;-37
2023/09/22 02:49:09;;;;;;;;;6.00;6.00;;;;;24.65;46.43;99587.58;110141;1263;19781;-37
2023/09/22 02:51:35;;;;;;;;;9.00;9.00;;;;;24.65;46.36;99582.27;110210;1257;19852;-37
2023/09/22 02:54:01;;;;;;;;;11.00;9.00;;;;;24.64;46.39;99581.91;110221;1247;19118;-37
2023/09/22 02:56:28;;;;;;;;;9.00;7.00;;;;;24.64;46.35;99577.92;110198;1250;19397;-38
2023/09/22 02:58:56;;;;;;;;;6.50;6.50;;;;;24.61;46.46;99575.54;110182;1250;20213;-39
2023/09/22 03:01:24;;;;;;;;;6.00;6.00;;;;;24.62;46.37;99581.05;110192;1250;20887;-38
2023/09/22 03:03:50;;;;;;;;;8.00;7.00;;;;;24.61;46.41;99584.85;110195;1264;22793;-37
2023/09/22 03:06:18;;;;;;;;;7.00;7.00;;;;;24.61;46.41;99585.14;110188;1264;18763;-37
2023/09/22 03:08:44;;;;;;;;;7.00;7.00;;;;;24.62;46.40;99579.02;110188;1264;19863;-37
2023/09/22 03:11:10;;;;;;;;;6.00;6.00;;;;;24.62;46.62;99576.02;110230;1247;22108;-37
2023/09/22 03:13:36;;;;;;;;;9.00;7.00;;;;;24.62;46.53;99577.80;110211;1264;22953;-38
2023/09/22 03:16:02;;;;;;;;;6.00;6.00;;;;;24.61;46.53;99578.25;110230;1264;19075;-37
2023/09/22 03:18:28;;;;;;;;;7.00;7.00;;;;;24.60;46.62;99580.27;110217;1264;19810;-38
2023/09/22 03:20:54;;;;;;;;;7.00;7.00;;;;;24.61;46.52;99576.86;110201;1264;19875;-38
2023/09/22 03:23:20;;;;;;;;;7.00;7.00;;;;;24.61;46.63;99576.93;110208;1264;20863;-38
2023/09/22 03:25:47;;;;;;;;;7.00;7.00;;;;;24.60;46.64;99579.96;110233;1247;19965;-38
2023/09/22 03:28:13;;;;;;;;;7.00;7.00;;;;;24.62;46.28;99585.33;110230;1257;20004;-38
2023/09/22 03:30:40;;;;;;;;;7.00;7.00;;;;;24.61;46.40;99581.79;110167;1264;21560;-38
2023/09/22 03:33:06;;;;;;;;;7.00;7.00;;;;;24.60;46.45;99580.58;110229;1248;18396;-37
2023/09/22 03:35:31;;;;;;;;;8.00;8.00;;;;;24.60;46.45;99578.98;110211;1264;18883;-38
2023/09/22 03:37:58;;;;;;;;;8.00;8.00;;;;;24.60;46.42;99576.95;110206;1248;19010;-38
2023/09/22 03:40:31;;;;;;;;;7.00;7.00;;;;;24.60;46.28;99580.56;110213;1249;19792;-37
2023/09/22 03:42:57;;;;;;;;;10.00;9.00;;;;;24.60;46.59;99580.50;110204;1251;20092;-37
2023/09/22 03:45:23;;;;;;;;;10.00;9.00;;;;;24.59;46.46;99578.25;110231;1248;21040;-38
2023/09/22 03:47:49;;;;;;;;;7.00;7.00;;;;;24.58;46.69;99578.60;110202;1264;18369;-37
2023/09/22 03:50:15;;;;;;;;;7.00;7.00;;;;;24.58;46.59;99583.11;110200;1247;19701;-37
2023/09/22 03:52:41;;;;;;;;;10.00;9.00;;;;;24.58;46.52;99582.75;110234;1264;20392;-37
2023/09/22 03:55:06;;;;;;;;;7.00;7.00;;;;;24.58;46.51;99579.21;110196;1264;18330;-38
2023/09/22 03:57:32;;;;;;;;;9.00;9.00;;;;;24.59;46.41;99574.31;110213;1256;18381;-38
2023/09/22 03:59:58;;;;;;;;;9.00;7.00;;;;;24.56;46.41;99576.52;110314;1250;22923;-36
2023/09/22 04:02:27;;;;;;;;;9.00;9.00;;;;;24.55;46.71;99573.77;110390;1247;22772;-37
2023/09/22 04:04:54;;;;;;;;;9.00;9.00;;;;;24.55;46.54;99576.61;110376;1262;18607;-37
2023/09/22 04:07:19;;;;;;;;;11.00;10.00;;;;;24.54;46.56;99578.35;110377;1262;19356;-38
2023/09/22 04:09:45;;;;;;;;;10.00;8.50;;;;;24.52;46.69;99574.67;110378;1248;22514;-38
2023/09/22 04:12:11;;;;;;;;;9.50;7.00;;;;;24.53;46.62;99572.36;110377;1248;20025;-38
2023/09/22 04:14:38;;;;;;;;;7.00;7.00;;;;;24.55;46.49;99580.73;110358;1248;20779;-38
2023/09/22 04:17:04;;;;;;;;;9.00;7.00;;;;;24.53;46.53;99574.88;110378;1262;18406;-37
2023/09/22 04:19:33;;;;;;;;;10.00;10.00;;;;;24.55;46.48;99577.48;110369;1262;21644;-38
2023/09/22 04:21:59;;;;;;;;;9.50;9.00;;;;;24.53;46.59;99574.71;110365;1248;22915;-38
2023/09/22 04:24:31;;;;;;;;;9.00;7.00;;;;;24.54;46.60;99577.74;110265;1248;19712;-38
2023/09/22 04:27:00;;;;;;;;;11.00;9.00;;;;;24.53;46.44;99577.92;110206;1250;22528;-37
2023/09/22 04:29:26;;;;;;;;;6.50;6.50;;;;;24.53;46.47;99570.71;110171;1264;19411;-38
2023/09/22 04:31:52;;;;;;;;;10.00;9.00;;;;;24.53;46.41;99572.13;110195;1264;19925;-36
2023/09/22 04:34:19;;;;;;;;;9.00;9.00;;;;;24.51;46.62;99571.36;110223;1250;22960;-36
2023/09/22 04:36:46;;;;;;;;;9.00;9.00;;;;;24.49;46.55;99568.86;110171;1256;19516;-36
2023/09/22 04:39:14;;;;;;;;;11.00;11.00;;;;;24.45;46.60;99563.64;110132;1250;19576;-37
2023/09/22 04:41:40;;;;;;;;;11.00;10.50;;;;;24.40;46.83;99564.39;110296;1264;20273;-37
2023/09/22 04:44:07;;;;;;;;;10.00;9.00;;;;;24.42;46.76;99565.92;110194;1248;22807;-37
2023/09/22 04:46:33;;;;;;;;;9.50;9.50;;;;;24.42;47.03;99566.64;110217;1264;22275;-38
2023/09/22 04:48:59;;;;;;;;;10.00;9.00;;;;;24.43;47.26;99566.79;110164;1250;20081;-37
2023/09/22 04:51:25;;;;;;;;;9.00;9.00;;;;;24.49;47.32;99570.11;110215;1264;18973;-37
2023/09/22 04:53:51;;;;;;;;;10.00;9.00;;;;;24.53;48.24;99569.08;110206;1250;19798;-37
2023/09/22 04:56:17;;;;;;;;;11.67;10.00;;;;;24.59;48.71;99572.16;110180;1248;22216;-37
2023/09/22 04:58:44;;;;;;;;;52.00;41.50;;;;;24.66;49.22;99574.83;110220;1250;22911;-38
2023/09/22 05:01:10;;;;;;;;;80.00;57.50;;;;;24.63;49.13;99571.22;110214;1256;23745;-37
2023/09/22 05:03:37;;;;;;;;;76.00;55.50;;;;;24.66;49.30;99577.34;110213;1247;20061;-37
2023/09/22 05:06:06;;;;;;;;;70.00;50.00;;;;;24.67;49.12;99579.73;110182;1264;19313;-38
2023/09/22 05:08:32;;;;;;;;;55.00;42.00;;;;;24.67;48.90;99576.66;110194;1247;21774;-37
2023/09/22 05:10:57;;;;;;;;;42.00;36.00;;;;;24.61;48.86;99580.40;110241;1250;20110;-38
2023/09/22 05:13:23;;;;;;;;;49.00;39.00;;;;;24.65;48.65;99579.79;110207;1264;19143;-37
2023/09/22 05:15:49;;;;;;;;;34.00;29.00;;;;;24.67;48.66;99584.77;110209;1250;19773;-37
2023/09/22 05:18:15;;;;;;;;;20.00;20.00;;;;;24.66;48.86;99580.46;110151;1263;18417;-37
2023/09/22 05:20:41;;;;;;;;;21.00;19.50;;;;;24.67;48.42;99582.36;110224;1250;20561;-37
2023/09/22 05:23:07;;;;;;;;;20.00;18.00;;;;;24.56;48.35;99580.02;110235;1250;19788;-39
2023/09/22 05:25:33;;;;;;;;;17.00;14.00;;;;;24.59;48.21;99582.63;110246;1263;20099;-37
2023/09/22 05:28:00;;;;;;;;;19.00;19.00;;;;;24.64;47.74;99584.13;110236;1250;20782;-37
2023/09/22 05:30:26;;;;;;;;;14.00;13.00;;;;;24.59;47.98;99583.17;110269;1250;22326;-37
2023/09/22 05:32:53;;;;;;;;;15.00;13.50;;;;;24.56;47.45;99586.91;110271;1250;19877;-37
2023/09/22 05:35:20;;;;;;;;;15.00;15.00;;;;;24.42;47.68;99582.77;110265;1264;19429;-36
2023/09/22 05:37:46;;;;;;;;;12.00;11.00;;;;;24.46;47.48;99587.80;110284;1247;22179;-37
2023/09/22 05:40:12;;;;;;;;;12.00;12.00;;;;;24.46;47.19;99591.36;110285;1249;21149;-37
2023/09/22 05:42:38;;;;;;;;;13.00;13.00;;;;;24.39;47.35;99587.98;110264;1264;19487;-37
2023/09/22 05:45:04;;;;;;;;;15.00;14.00;;;;;24.38;47.30;99591.57;110311;1263;18366;-36
2023/09/22 05:47:30;;;;;;;;;16.00;13.00;;;;;24.34;47.44;99592.52;110271;1250;19928;-37
2023/09/22 05:49:56;;;;;;;;;10.50;10.00;;;;;24.22;47.50;99593.48;110308;1250;20484;-37
2023/09/22 05:52:22;;;;;;;;;14.00;13.00;;;;;24.31;47.46;99590.09;110286;1259;19750;-37
2023/09/22 05:54:48;;;;;;;;;10.00;10.00;;;;;24.32;47.39;99591.85;110286;1257;19848;-37
2023/09/22 05:57:14;;;;;;;;;13.50;13.00;;;;;24.32;47.28;99598.55;110292;1250;20621;-37
2023/09/22 05:59:40;;;;;;;;;10.00;10.00;;;;;24.36;47.14;99600.67;110270;1257;19674;-37
2023/09/22 06:02:06;;;;;;;;;13.00;13.00;;;;;24.37;47.11;99605.50;110241;1257;18398;-37
2023/09/22 06:04:32;;;;;;;;;11.00;10.00;;;;;24.33;47.22;99607.83;110296;1247;20749;-37
2023/09/22 06:06:58;;;;;;;;;13.33;12.67;;;;;24.34;47.36;99610.53;109937;1250;452122;-37
2023/09/22 06:09:24;;;;;;;;;11.50;10.50;;;;;24.34;47.52;99603.02;110252;1264;22182;-36
2023/09/22 06:11:50;;;;;;;;;12.00;12.00;;;;;24.32;47.31;99600.55;110283;1251;22520;-37
2023/09/22 06:14:16;;;;;;;;;11.00;11.00;;;;;24.39;47.15;99603.64;110291;1250;19760;-37
2023/09/22 06:16:42;;;;;;;;;14.00;13.00;;;;;24.34;47.29;99605.48;110320;1250;19897;-36
2023/09/22 06:19:10;;;;;;;;;13.00;13.00;;;;;24.38;47.26;99608.38;110307;1264;20465;-37
2023/09/22 06:21:36;;;;;;;;;10.67;9.67;;;;;24.34;47.51;99609.70;110274;1250;21232;-37
2023/09/22 06:24:02;;;;;;;;;11.00;10.50;;;;;24.43;47.27;99612.05;110279;1247;19782;-36
2023/09/22 06:26:28;;;;;;;;;14.00;14.00;;;;;24.44;47.14;99612.95;110286;1263;19383;-35
2023/09/22 06:28:54;;;;;;;;;16.50;15.50;;;;;24.41;47.17;99615.42;110224;1263;19978;-36
2023/09/22 06:31:20;;;;;;;;;12.00;12.00;;;;;24.44;47.14;99618.27;110113;1263;18385;-35
2023/09/22 06:33:48;;;;;;;;;13.00;11.00;;;;;24.48;47.29;99624.80;110198;1257;19072;-38
2023/09/22 06:36:14;;;;;;;;;13.00;12.67;;;;;24.44;47.28;99619.55;110198;1263;21035;-36
2023/09/22 06:38:40;;;;;;;;;14.00;14.00;;;;;24.28;47.53;99623.17;110184;1257;19084;-36
2023/09/22 06:41:06;;;;;;;;;12.00;12.00;;;;;24.35;47.72;99624.05;110211;1263;22446;-37
2023/09/22 06:43:33;;;;;;;;;14.00;13.00;;;;;24.51;47.45;99625.17;110247;1264;19860;-37
2023/09/22 06:45:59;;;;;;;;;11.50;11.50;;;;;24.52;47.14;99630.75;110228;1251;20144;-36
2023/09/22 06:48:26;;;;;;;;;13.00;13.00;;;;;24.35;47.67;99629.33;110237;1247;21729;-36
2023/09/22 06:50:53;;;;;;;;;15.00;13.00;;;;;24.37;47.77;99631.46;110228;1257;18740;-36
2023/09/22 06:53:19;;;;;;;;;14.00;14.00;;;;;24.52;47.28;99640.38;110214;1247;22592;-37
2023/09/22 06:55:45;;;;;;;;;14.50;14.00;;;;;24.50;47.30;99641.77;110255;1247;20821;-36
2023/09/22 06:58:11;;;;;;;;;14.00;14.00;;;;;24.49;47.63;99645.58;110242;1257;18524;-38
2023/09/22 07:00:37;;;;;;;;;14.00;13.00;;;;;24.55;47.48;99649.66;110242;1247;20876;-36
2023/09/22 07:03:03;;;;;;;;;15.00;14.00;;;;;24.68;47.25;99652.43;110175;1264;20573;-36
2023/09/22 07:05:29;;;;;;;;;13.50;13.00;;;;;24.63;47.42;99650.27;110233;1247;20008;-37
2023/09/22 07:07:55;;;;;;;;;15.00;13.00;;;;;24.66;47.53;99653.90;110207;1247;19991;-37
2023/09/22 07:10:20;;;;;;;;;15.00;14.00;;;;;24.72;47.18;99656.23;110203;1257;20445;-38
2023/09/22 07:12:46;;;;;;;;;14.00;14.00;;;;;24.64;47.38;99661.03;110195;1264;18525;-38
2023/09/22 07:15:12;;;;;;;;;13.00;13.00;;;;;24.70;47.39;99661.45;110204;1247;18469;-37
2023/09/22 07:17:38;;;;;;;;;17.00;14.50;;;;;24.74;47.16;99663.45;110216;1250;20413;-38
2023/09/22 07:20:04;;;;;;;;;15.00;15.00;;;;;24.73;47.55;99668.80;110213;1250;19772;-38
2023/09/22 07:22:30;;;;;;;;;14.00;13.00;;;;;24.62;47.62;99666.70;110205;1264;18758;-35
2023/09/22 07:24:56;;;;;;;;;14.00;13.00;;;;;24.68;47.57;99666.83;110279;1247;22977;-36
2023/09/22 07:27:23;;;;;;;;;15.00;15.00;;;;;24.79;47.32;99665.53;110319;1257;22504;-37
2023/09/22 07:29:50;;;;;;;;;15.00;13.00;;;;;24.84;47.06;99671.65;110274;1263;22329;-37
2023/09/22 07:32:16;;;;;;;;;13.50;13.00;;;;;24.81;47.29;99670.62;110230;1264;20709;-37
2023/09/22 07:34:42;;;;;;;;;14.50;14.00;;;;;24.84;47.16;99667.89;110198;1247;20088;-37
2023/09/22 07:37:10;;;;;;;;;11.00;11.00;;;;;24.80;47.16;99667.63;110217;1250;19996;-37
2023/09/22 07:39:36;;;;;;;;;15.50;13.00;;;;;24.85;47.11;99666.73;110182;1264;22950;-37
2023/09/22 07:42:03;;;;;;;;;14.00;14.00;;;;;24.97;47.05;99670.17;110192;1256;24232;-38
2023/09/22 07:44:29;;;;;;;;;16.00;15.00;;;;;24.98;46.94;99677.59;110211;1247;21908;-38
2023/09/22 07:46:58;;;;;;;;;16.00;15.00;;;;;24.93;47.10;99676.33;110257;1247;20748;-38
2023/09/22 07:49:24;;;;;;;;;14.67;14.33;;;;;24.85;47.28;99680.20;110213;1264;18706;-38
2023/09/22 07:51:50;;;;;;;;;16.00;15.00;;;;;24.83;47.28;99671.95;110242;1264;18652;-37
2023/09/22 07:54:18;;;;;;;;;16.00;14.00;;;;;24.98;46.81;99670.37;110247;1264;19488;-38
2023/09/22 07:56:46;;;;;;;;;15.00;14.50;;;;;24.96;47.09;99673.59;110211;1250;22326;-37
2023/09/22 07:59:13;;;;;;;;;16.00;15.00;;;;;24.84;47.15;99676.00;110291;1247;23351;-36
2023/09/22 08:01:42;;;;;;;;;15.67;14.00;;;;;24.83;47.15;99680.52;110277;1250;20787;-37
2023/09/22 08:04:08;;;;;;;;;15.50;14.50;;;;;24.79;47.34;99670.08;110245;1247;22294;-37
2023/09/22 08:06:34;;;;;;;;;16.50;15.00;;;;;24.87;47.32;99663.21;110220;1250;22800;-37
2023/09/22 08:09:00;;;;;;;;;18.00;17.00;;;;;24.97;47.04;99657.25;110226;1250;20531;-37
2023/09/22 08:11:26;;;;;;;;;19.00;18.00;;;;;24.98;47.07;99639.55;110191;1250;19722;-38
2023/09/22 08:13:52;;;;;;;;;18.00;18.00;;;;;24.95;47.10;99627.98;110204;1250;19929;-37
2023/09/22 08:16:18;;;;;;;;;15.00;15.00;;;;;24.89;47.31;99627.14;110199;1250;20633;-38
2023/09/22 08:18:44;;;;;;;;;15.50;14.00;;;;;24.99;47.35;99628.86;110199;1263;18579;-37
2023/09/22 08:21:10;;;;;;;;;16.00;16.00;;;;;24.97;47.61;99631.70;110196;1250;20093;-38
2023/09/22 08:23:36;;;;;;;;;16.50;14.50;;;;;24.93;47.51;99636.17;110240;1250;20503;-38
2023/09/22 08:26:05;;;;;;;;;16.00;15.00;;;;;24.83;47.45;99636.30;110220;1263;18743;-37
2023/09/22 08:28:31;;;;;;;;;13.50;13.00;;;;;24.64;47.62;99639.52;110206;1250;20123;-37
2023/09/22 08:30:57;;;;;;;;;14.00;14.00;;;;;24.61;47.72;99639.55;110179;1251;20345;-38
2023/09/22 08:33:23;;;;;;;;;13.00;11.00;;;;;24.54;47.63;99634.91;110235;1247;18341;-37
2023/09/22 08:35:49;;;;;;;;;13.00;12.00;;;;;24.60;47.27;99633.23;110222;1248;19848;-37
2023/09/22 08:38:15;;;;;;;;;13.00;13.00;;;;;24.75;47.00;99633.25;110208;1250;20682;-37
2023/09/22 08:40:41;;;;;;;;;11.00;11.00;;;;;24.81;46.68;99637.85;110266;1247;20000;-37
2023/09/22 08:43:08;;;;;;;;;14.50;14.50;;;;;24.91;46.59;99641.55;110263;1257;22219;-37
2023/09/22 08:45:34;;;;;;;;;15.00;13.00;;;;;25.16;46.57;99646.42;110230;1250;20769;-37
2023/09/22 08:48:00;;;;;;;;;14.00;10.00;;;;;25.29;46.15;99653.39;110186;1247;19815;-37
2023/09/22 08:50:26;;;;;;;;;14.00;12.00;;;;;25.28;46.27;99652.66;110263;1263;18491;-37
2023/09/22 08:52:52;;;;;;;;;11.00;11.00;;;;;25.25;46.04;99657.70;110286;1248;19218;-37
2023/09/22 08:55:18;;;;;;;;;12.50;12.50;;;;;25.06;46.09;99647.33;110329;1247;20175;-37
2023/09/22 08:57:44;;;;;;;;;12.00;12.00;;;;;25.09;46.12;99646.06;110324;1257;18645;-37
2023/09/22 09:00:12;;;;;;;;;12.00;12.00;;;;;25.20;46.14;99644.41;110285;1257;20491;-38
2023/09/22 09:02:38;;;;;;;;;15.50;14.50;;;;;25.10;45.92;99636.09;110239;1258;20010;-37
2023/09/22 09:05:04;;;;;;;;;14.50;14.00;;;;;25.10;46.06;99628.74;110231;1263;18589;-37
2023/09/22 09:07:31;;;;;;;;;11.00;11.00;;;;;25.26;46.04;99632.05;110205;1248;20559;-37
2023/09/22 09:09:58;;;;;;;;;14.00;12.00;;;;;25.39;45.64;99628.77;110186;1263;22696;-38
2023/09/22 09:12:25;;;;;;;;;14.50;13.00;;;;;25.41;45.98;99635.27;110231;1264;18833;-39
2023/09/22 09:14:51;;;;;;;;;12.00;12.00;;;;;25.42;45.79;99633.98;110201;1250;20814;-39
2023/09/22 09:17:17;;;;;;;;;14.50;14.00;;;;;25.36;45.75;99634.54;110203;1250;21013;-38
2023/09/22 09:19:43;;;;;;;;;15.00;13.33;;;;;25.43;45.48;99637.96;110213;1263;20085;-38
2023/09/22 09:22:09;;;;;;;;;11.00;11.00;;;;;25.37;45.63;99637.40;110292;1250;20544;-38
2023/09/22 09:24:35;;;;;;;;;12.00;11.00;;;;;25.35;45.67;99626.73;110270;1247;21815;-38
2023/09/22 09:27:02;;;;;;;;;10.00;10.00;;;;;25.37;45.76;99617.27;110278;1247;20311;-38
2023/09/22 09:29:28;;;;;;;;;13.33;12.00;;;;;25.43;45.88;99616.73;110259;1264;20960;-35
2023/09/22 09:31:55;;;;;;;;;15.00;12.00;;;;;25.42;45.75;99619.26;110276;1263;19919;-38
2023/09/22 09:34:23;;;;;;;;;11.00;11.00;;;;;25.38;46.16;99622.70;110286;1263;22720;-38
2023/09/22 09:36:49;;;;;;;;;11.00;10.50;;;;;25.48;46.09;99616.30;110280;1264;22114;-37
2023/09/22 09:39:17;;;;;;;;;11.00;11.00;;;;;25.47;45.84;99613.42;110284;1247;21110;-36
2023/09/22 09:41:43;;;;;;;;;10.00;9.00;;;;;25.47;46.00;99608.75;110192;1250;20561;-37
2023/09/22 09:44:10;;;;;;;;;10.00;9.00;;;;;25.53;45.99;99600.82;110136;1250;20389;-37
2023/09/22 09:46:38;;;;;;;;;12.00;10.00;;;;;25.60;46.00;99603.92;110214;1250;20041;-37
2023/09/22 09:49:04;;;;;;;;;9.00;7.50;;;;;25.51;46.04;99593.63;110243;1247;22193;-36
2023/09/22 09:51:31;;;;;;;;;8.50;8.50;;;;;25.52;46.30;99596.40;110276;1257;20823;-36
2023/09/22 09:53:57;;;;;;;;;10.00;10.00;;;;;25.51;46.27;99598.80;110261;1247;20697;-36
2023/09/22 09:56:23;;;;;;;;;10.00;8.00;;;;;25.43;46.51;99600.27;110250;1247;22714;-36
2023/09/22 09:58:52;;;;;;;;;8.00;8.00;;;;;25.44;46.56;99601.25;110297;1248;22780;-36
2023/09/22 10:01:19;;;;;;;;;8.00;8.00;;;;;25.48;46.65;99601.98;110274;1263;18405;-37
2023/09/22 10:03:45;;;;;;;;;12.00;11.00;;;;;25.52;46.34;99606.27;110235;1249;21634;-36
2023/09/22 10:06:10;;;;;;;;;10.50;8.00;;;;;25.57;46.27;99613.83;110228;1263;20411;-36
2023/09/22 10:08:37;;;;;;;;;11.00;10.00;;;;;25.50;46.31;99610.19;110288;1263;19863;-36
2023/09/22 10:11:03;;;;;;;;;10.00;8.00;;;;;25.45;46.45;99606.08;110275;1250;21313;-36
2023/09/22 10:13:29;;;;;;;;;14.00;11.00;;;;;25.48;46.35;99609.33;110260;1248;20826;-36
2023/09/22 10:15:55;;;;;;;;;10.00;8.00;;;;;25.46;46.04;99604.56;110264;1250;19822;-36
2023/09/22 10:18:21;;;;;;;;;11.00;10.00;;;;;25.42;46.26;99591.39;110288;1250;20049;-36
2023/09/22 10:20:47;;;;;;;;;8.00;8.00;;;;;25.41;46.11;99596.29;110261;1263;19135;-36
2023/09/22 10:23:13;;;;;;;;;10.00;10.00;;;;;25.41;46.09;99589.36;110277;1263;18467;-36
2023/09/22 10:25:39;;;;;;;;;10.33;10.33;;;;;25.43;46.19;99582.09;110248;1250;21325;-35
2023/09/22 10:28:08;;;;;;;;;10.00;10.00;;;;;25.51;45.85;99584.54;110226;1263;19149;-38
2023/09/22 10:30:34;;;;;;;;;11.33;10.67;;;;;25.52;45.22;99591.24;110267;1264;19948;-37
2023/09/22 10:33:00;;;;;;;;;13.00;11.00;;;;;25.62;44.68;99591.95;110280;1264;18584;-37
2023/09/22 10:35:26;;;;;;;;;14.50;13.00;;;;;25.88;44.83;99599.91;110225;1249;20539;-37
2023/09/22 10:37:52;;;;;;;;;10.00;10.00;;;;;25.63;44.74;99597.55;110264;1250;19807;-37
2023/09/22 10:40:19;;;;;;;;;11.00;10.50;;;;;25.68;44.83;99590.02;110273;1257;19980;-36
2023/09/22 10:42:46;;;;;;;;;11.67;11.67;;;;;25.73;44.58;99592.73;110262;1263;22339;-37
2023/09/22 10:45:12;;;;;;;;;11.50;11.00;;;;;25.72;44.28;99594.27;110270;1247;23226;-37
2023/09/22 10:47:37;;;;;;;;;11.00;9.00;;;;;25.81;44.05;99594.05;110283;1247;21511;-37
2023/09/22 10:50:03;;;;;;;;;10.00;8.00;;;;;25.69;44.46;99599.70;110266;1250;20529;-37
2023/09/22 10:52:29;;;;;;;;;14.50;12.00;;;;;25.83;44.40;99599.78;110261;1263;22045;-37
2023/09/22 10:54:55;;;;;;;;;12.00;10.50;;;;;25.86;44.78;99598.73;110162;1250;23458;-37
2023/09/22 10:57:21;;;;;;;;;11.00;11.00;;;;;25.83;44.80;99599.79;110238;1250;20541;-37
2023/09/22 10:59:47;;;;;;;;;12.00;11.00;;;;;25.72;44.83;99603.37;110298;1257;19589;-37
2023/09/22 11:02:13;;;;;;;;;14.00;12.00;;;;;25.71;44.58;99602.21;110288;1263;18483;-37
2023/09/22 11:04:39;;;;;;;;;11.50;11.00;;;;;25.63;44.65;99605.02;110275;1249;22578;-37
2023/09/22 11:07:05;;;;;;;;;12.00;11.00;;;;;25.61;44.88;99607.56;110296;1247;22545;-37
2023/09/22 11:09:31;;;;;;;;;12.00;12.00;;;;;25.60;45.02;99605.92;110274;1247;20334;-37
2023/09/22 11:11:57;;;;;;;;;11.00;10.00;;;;;25.61;45.05;99607.50;110232;1263;22190;-37